Time;durP1;ratioP1;P1;durP2;ratioP2;P2;SDS_P1;SDS_P2;PMS_P1;PMS_P2;Temp;Humidity;BMP_temperature;BMP_pressure;BME280_temperature;BME280_humidity;BME280_pressure;Samples;Min_cycle;Max_cycle;Signal;HPM_P1;HPM_P2
2023/01/02 00:01:00;;;;;;;37.13;25.15;;;;;;;6.58;98.60;100952.31;1774532;81;21189;-78
2023/01/02 00:04:05;;;;;;;36.03;25.48;;;;;;;6.62;97.94;100954.63;1775321;81;21220;-79
2023/01/02 00:07:12;;;;;;;40.05;24.77;;;;;;;6.64;97.77;100951.30;1775992;81;21227;-78
2023/01/02 00:10:18;;;;;;;40.63;24.90;;;;;;;6.64;97.56;100951.30;1774578;81;21189;-78
2023/01/02 00:13:24;;;;;;;38.80;26.35;;;;;;;6.60;97.43;100953.06;1774646;81;21200;-78
2023/01/02 00:16:32;;;;;;;40.10;26.42;;;;;;;6.56;97.70;100939.37;1775886;81;21181;-80
2023/01/02 00:19:38;;;;;;;35.85;24.30;;;;;;;6.49;97.68;100936.31;1776043;81;21189;-78
2023/01/02 00:22:44;;;;;;;38.55;26.55;;;;;;;6.45;97.92;100935.39;1775739;81;21811;-78
2023/01/02 00:25:50;;;;;;;37.05;25.20;;;;;;;6.47;98.19;100940.17;1775932;81;21181;-78
2023/01/02 00:28:55;;;;;;;38.75;25.95;;;;;;;6.40;98.37;100946.66;1774381;81;21259;-78
2023/01/02 00:32:01;;;;;;;39.90;23.67;;;;;;;6.32;98.78;100947.81;1774435;81;21263;-78
2023/01/02 00:35:06;;;;;;;34.80;23.85;;;;;;;6.27;99.43;100956.36;1774777;81;21232;-78
2023/01/02 00:38:12;;;;;;;37.08;24.82;;;;;;;6.42;98.67;100953.31;1775750;81;21231;-79
2023/01/02 00:41:20;;;;;;;43.78;25.40;;;;;;;6.38;98.52;100952.20;1775757;81;21161;-78
2023/01/02 00:44:26;;;;;;;40.80;25.68;;;;;;;6.35;98.34;100957.93;1774511;81;21786;-78
2023/01/02 00:47:32;;;;;;;40.60;25.62;;;;;;;6.26;98.33;100960.08;1775832;81;21184;-78
2023/01/02 00:50:38;;;;;;;38.02;25.45;;;;;;;6.31;98.20;100955.11;1775935;81;21185;-78
2023/01/02 00:53:44;;;;;;;41.85;24.10;;;;;;;6.26;98.33;100936.13;1775823;81;21232;-79
2023/01/02 00:56:42;;;;;;;39.92;25.65;;;;;;;6.33;98.00;100943.59;1775700;81;21223;-79
2023/01/02 00:59:49;;;;;;;40.63;25.05;;;;;;;6.10;98.39;100944.73;1775742;81;21185;-79
2023/01/02 01:02:55;;;;;;;40.20;25.40;;;;;;;6.11;98.59;100943.23;1775875;81;21160;-79
2023/01/02 01:06:01;;;;;;;36.88;21.90;;;;;;;6.24;97.35;100943.53;1774608;81;21213;-78
2023/01/02 01:09:08;;;;;;;45.52;26.30;;;;;;;6.13;98.30;100945.33;1775918;81;21176;-79
2023/01/02 01:12:07;;;;;;;38.92;25.68;;;;;;;6.23;98.30;100952.69;1776135;81;21157;-79
2023/01/02 01:14:59;;;;;;;37.50;24.47;;;;;;;6.13;98.29;100948.05;1774601;81;21193;-79
2023/01/02 01:18:05;;;;;;;;;;;;;;;6.18;98.83;100938.14;1778735;81;21189;-78
2023/01/02 01:21:25;;;;;;;34.80;23.92;;;;;;;6.17;99.19;100930.14;1775850;81;20215;-79
2023/01/02 01:24:32;;;;;;;37.60;23.92;;;;;;;6.15;100.00;100928.89;1775933;81;21226;-79
2023/01/02 01:27:37;;;;;;;36.58;24.10;;;;;;;6.26;100.00;100923.41;1775884;81;21181;-79
2023/01/02 01:30:42;;;;;;;41.70;24.00;;;;;;;6.33;100.00;100918.28;1776270;81;21239;-78
2023/01/02 01:33:49;;;;;;;34.70;23.35;;;;;;;6.39;100.00;100915.88;1794313;80;21264;-79
2023/01/02 01:36:55;;;;;;;41.48;24.57;;;;;;;6.48;100.00;100907.92;1831668;78;21172;-79
2023/01/02 01:40:01;;;;;;;38.65;24.07;;;;;;;6.54;99.96;100910.09;1830505;78;21805;-79
2023/01/02 01:42:59;;;;;;;40.43;25.30;;;;;;;6.59;100.00;100907.84;1831520;78;21180;-78
2023/01/02 01:45:53;;;;;;;33.53;23.35;;;;;;;6.66;100.00;100910.37;1806698;78;21219;-78
2023/01/02 01:48:39;;;;;;;35.08;22.62;;;;;;;6.80;99.71;100911.36;1831854;78;21222;-79
2023/01/02 01:51:32;;;;;;;34.20;23.45;;;;;;;6.74;99.25;100915.99;1830155;78;21187;-78
2023/01/02 01:54:25;;;;;;;34.75;24.60;;;;;;;6.84;99.06;100915.52;1831681;78;21539;-78
2023/01/02 01:57:38;;;;;;;40.25;26.45;;;;;;;6.81;99.23;100914.43;1831562;78;21168;-78
2023/01/02 02:00:24;;;;;;;33.40;23.80;;;;;;;6.85;99.49;100910.44;1831588;78;21211;-79
2023/01/02 02:03:20;;;;;;;39.18;24.05;;;;;;;6.84;99.68;100910.09;1830160;78;21734;-78
2023/01/02 02:06:25;;;;;;;37.60;24.75;;;;;;;6.88;100.00;100901.16;1830131;78;21215;-78
2023/01/02 02:09:43;;;;;;;35.33;23.32;;;;;;;6.90;100.00;100900.01;1830255;78;21243;-78
2023/01/02 02:12:50;;;;;;;37.05;23.18;;;;;;;6.99;100.00;100911.06;1831907;78;21175;-78
2023/01/02 02:16:19;;;;;;;32.90;23.30;;;;;;;7.15;99.40;100922.27;1830239;78;21699;-78
2023/01/02 02:19:42;;;;;;;35.13;23.62;;;;;;;6.95;99.05;100928.16;1831777;78;21167;-79
2023/01/02 02:23:09;;;;;;;36.85;25.30;;;;;;;6.93;98.81;100937.47;1831612;78;21161;-78
2023/01/02 02:26:43;;;;;;;34.95;23.90;;;;;;;6.93;98.50;100934.23;1831056;78;21702;-78
2023/01/02 02:30:09;;;;;;;42.67;27.73;;;;;;;6.91;98.20;100931.64;1831072;78;21254;-78
2023/01/02 02:33:45;;;;;;;41.88;26.75;;;;;;;6.90;98.50;100940.80;1832274;78;21206;-78
2023/01/02 02:37:15;;;;;;;35.48;24.18;;;;;;;6.91;98.59;100931.64;1835536;78;21191;-77
2023/01/02 02:40:50;;;;;;;36.40;24.15;;;;;;;7.00;98.09;100955.80;1835168;78;21580;-79
2023/01/02 02:44:13;;;;;;;45.63;25.88;;;;;;;7.06;98.02;100944.89;1836677;78;21184;-79
2023/01/02 02:47:25;;;;;;;33.75;23.20;;;;;;;7.08;98.12;100955.12;1835258;78;21195;-78
2023/01/02 02:51:01;;;;;;;44.18;25.77;;;;;;;7.11;98.10;100957.58;1836845;78;21511;-77
2023/01/02 02:54:14;;;;;;;39.50;24.35;;;;;;;7.37;96.85;100955.19;1791706;78;21200;-78
2023/01/02 02:57:20;;;;;;;40.78;26.10;;;;;;;7.39;95.88;100957.30;1835282;78;21175;-78
2023/01/02 03:00:28;;;;;;;44.03;24.18;;;;;;;7.50;95.50;100967.19;1834870;78;21198;-78
2023/01/02 03:03:34;;;;;;;36.35;24.75;;;;;;;7.52;95.14;100959.73;1814431;78;21750;-78
2023/01/02 03:07:03;;;;;;;32.73;21.62;;;;;;;7.27;95.18;100968.78;1835816;78;21208;-79
2023/01/02 03:10:51;;;;;;;32.90;23.05;;;;;;;7.47;95.38;100968.81;1836699;78;21710;-78
2023/01/02 03:14:06;;;;;;;37.38;25.02;;;;;;;7.45;94.60;100973.55;1836659;78;21210;-79
2023/01/02 03:17:17;;;;;;;39.05;24.87;;;;;;;7.06;94.93;100977.53;1835794;78;21180;-79
2023/01/02 03:20:23;;;;;;;;;;;;;;;7.11;94.33;100962.52;1839390;78;21176;-79
2023/01/02 03:23:26;;;;;;;38.05;24.55;;;;;;;7.17;93.53;100966.03;1837422;78;20234;-79
2023/01/02 03:26:34;;;;;;;35.63;22.62;;;;;;;7.21;93.44;100958.45;1834933;78;21778;-79
2023/01/02 03:29:48;;;;;;;36.15;22.27;;;;;;;7.14;93.48;100966.30;1836604;78;21175;-79
2023/01/02 03:33:22;;;;;;;36.03;21.33;;;;;;;7.12;93.64;100963.37;1837191;78;21156;-79
2023/01/02 03:36:31;;;;;;;38.45;24.70;;;;;;;7.07;93.96;100962.42;1836434;78;21179;-78
2023/01/02 03:39:39;;;;;;;40.70;25.62;;;;;;;7.08;95.07;100968.72;1835924;78;21207;-78
2023/01/02 03:42:50;;;;;;;44.00;26.40;;;;;;;6.97;95.66;100964.75;1836648;78;21171;-78
2023/01/02 03:46:00;;;;;;;37.73;23.42;;;;;;;7.06;96.26;100963.42;1835687;78;21211;-79
2023/01/02 03:49:31;;;;;;;39.23;23.05;;;;;;;7.02;96.42;100957.04;1836335;78;21235;-78
2023/01/02 03:52:37;;;;;;;35.88;23.70;;;;;;;6.91;96.55;100954.75;1836410;78;21838;-78
2023/01/02 03:55:43;;;;;;;42.55;24.47;;;;;;;6.91;95.97;100956.11;1836468;78;21236;-78
2023/01/02 03:59:01;;;;;;;39.65;24.40;;;;;;;6.89;95.50;100948.61;1836456;78;21187;-78
2023/01/02 04:02:14;;;;;;;37.17;23.90;;;;;;;6.63;96.13;100950.05;1835018;78;21793;-78
2023/01/02 04:05:48;;;;;;;42.20;23.35;;;;;;;6.57;96.78;100947.88;1834625;78;21164;-78
2023/01/02 04:09:08;;;;;;;37.48;24.02;;;;;;;6.54;97.15;100944.06;1836488;78;21191;-78
2023/01/02 04:12:19;;;;;;;39.33;24.40;;;;;;;6.57;96.99;100939.22;1836647;78;21210;-78
2023/01/02 04:15:26;;;;;;;43.55;26.73;;;;;;;6.64;96.18;100940.92;1836661;78;21167;-79
2023/01/02 04:18:45;;;;;;;38.85;24.95;;;;;;;6.54;95.85;100941.34;1835189;78;21192;-78
2023/01/02 04:21:51;;;;;;;38.08;24.47;;;;;;;6.48;95.57;100941.89;1836506;78;21179;-80
2023/01/02 04:25:05;;;;;;;42.40;24.92;;;;;;;6.45;95.24;100933.53;1836533;78;21164;-80
2023/01/02 04:28:16;;;;;;;39.23;24.02;;;;;;;6.37;95.08;100939.63;1835124;78;21929;-80
2023/01/02 04:31:29;;;;;;;40.30;26.23;;;;;;;6.37;95.09;100943.70;1835375;78;21246;-79
2023/01/02 04:34:38;;;;;;;39.88;23.77;;;;;;;6.31;95.29;100936.59;1835047;78;21223;-79
2023/01/02 04:37:47;;;;;;;38.98;26.90;;;;;;;6.43;95.10;100938.22;1803381;79;21797;-80
2023/01/02 04:40:53;;;;;;;42.43;25.50;;;;;;;6.37;95.25;100943.70;1802267;79;21182;-78
2023/01/02 04:44:00;;;;;;;39.10;24.07;;;;;;;6.18;95.91;100944.08;1768649;81;21187;-78
2023/01/02 04:47:05;;;;;;;41.35;26.05;;;;;;;6.24;95.89;100951.19;1789476;80;21821;-79
2023/01/02 04:50:13;;;;;;;37.53;24.72;;;;;;;6.26;96.07;100952.44;1767245;81;21203;-78
2023/01/02 04:53:17;;;;;;;38.92;26.27;;;;;;;6.19;96.34;100957.52;1790192;80;21179;-79
2023/01/02 04:56:22;;;;;;;37.53;25.43;;;;;;;6.21;96.20;100961.45;1768820;81;21202;-78
2023/01/02 04:59:28;;;;;;;39.23;25.45;;;;;;;6.12;96.53;100962.63;1788787;80;21191;-78
2023/01/02 05:02:34;;;;;;;41.90;24.70;;;;;;;6.06;96.78;100974.50;1767947;81;21207;-78
2023/01/02 05:05:41;;;;;;;42.88;27.65;;;;;;;5.99;97.22;100970.09;1790271;80;21560;-78
2023/01/02 05:08:47;;;;;;;38.05;27.13;;;;;;;5.97;97.88;100979.35;1767709;81;21223;-78
2023/01/02 05:11:53;;;;;;;49.60;29.23;;;;;;;5.92;98.37;100977.03;1789967;80;21224;-78
2023/01/02 05:15:00;;;;;;;41.18;25.82;;;;;;;5.87;98.82;100981.45;1768815;81;21171;-78
2023/01/02 05:18:06;;;;;;;44.18;27.58;;;;;;;6.03;98.85;100984.28;1788920;80;21239;-79
2023/01/02 05:24:34;;;;;;;38.80;26.33;;;;;;;6.13;98.05;100990.65;1708296;80;21193;-78
2023/01/02 05:27:40;;;;;;;45.33;25.75;;;;;;;5.99;98.55;101000.47;1767434;81;21189;-78
2023/01/02 05:30:48;;;;;;;37.40;26.35;;;;;;;5.98;98.98;100996.89;1790210;80;21168;-79
2023/01/02 05:34:00;;;;;;;42.50;27.07;;;;;;;5.88;99.55;101008.11;1766913;81;21794;-77
2023/01/02 05:37:06;;;;;;;37.88;25.95;;;;;;;5.76;100.00;101011.38;1805627;79;21223;-78
2023/01/02 05:40:13;;;;;;;42.50;27.80;;;;;;;5.79;100.00;101013.84;1817625;79;21219;-78
2023/01/02 05:43:18;;;;;;;45.43;26.85;;;;;;;5.80;100.00;101010.13;1820038;78;21308;-78
2023/01/02 05:46:26;;;;;;;43.28;27.37;;;;;;;5.99;99.69;101009.98;1822292;77;21728;-79
2023/01/02 05:49:30;;;;;;;42.05;26.35;;;;;;;5.99;99.61;101015.41;1785038;78;21267;-79
2023/01/02 05:52:29;;;;;;;38.98;27.15;;;;;;;6.03;99.39;101020.95;1758846;81;21178;-79
2023/01/02 05:55:22;;;;;;;39.25;26.77;;;;;;;6.06;99.17;101018.81;1794705;80;21180;-78
2023/01/02 05:58:07;;;;;;;40.00;27.17;;;;;;;6.08;99.39;101021.42;1793737;78;21734;-78
2023/01/02 06:01:00;;;;;;;40.88;27.42;;;;;;;6.13;99.18;101022.74;1777566;79;21198;-79
2023/01/02 06:03:49;;;;;;;45.55;28.07;;;;;;;6.20;99.08;101019.00;1762064;81;21231;-78
2023/01/02 06:06:46;;;;;;;41.33;27.15;;;;;;;6.11;99.65;101020.64;1782786;80;21227;-79
2023/01/02 06:09:44;;;;;;;39.63;25.92;;;;;;;6.15;99.93;101022.10;1779940;78;21203;-79
2023/01/02 06:12:37;;;;;;;39.67;27.20;;;;;;;6.16;99.93;101024.32;1771669;78;21297;-79
2023/01/02 06:15:23;;;;;;;40.35;27.45;;;;;;;6.15;100.00;101015.81;1811113;77;21672;-79
2023/01/02 06:18:28;;;;;;;47.98;29.00;;;;;;;6.13;100.00;101028.18;1822633;78;21217;-78
2023/01/02 06:21:34;;;;;;;41.77;28.50;;;;;;;6.26;100.00;101089.13;1815084;78;21249;-79
2023/01/02 06:24:44;;;;;;;42.00;27.35;;;;;;;6.36;100.00;101087.36;1801491;78;21174;-79
2023/01/02 06:28:11;;;;;;;44.98;28.87;;;;;;;6.53;100.00;101085.04;1810107;79;21244;-80
2023/01/02 06:31:20;;;;;;;45.08;27.70;;;;;;;6.70;100.00;101095.84;1815203;78;21190;-79
2023/01/02 06:34:26;;;;;;;47.40;28.27;;;;;;;6.88;100.00;101080.15;1823033;78;21205;-78
2023/01/02 06:37:32;;;;;;;45.03;28.15;;;;;;;6.98;100.00;101076.63;1792602;78;21211;-79
2023/01/02 06:40:38;;;;;;;45.58;28.57;;;;;;;7.22;100.00;101081.76;1800698;79;21244;-80
2023/01/02 06:43:48;;;;;;;45.10;28.35;;;;;;;7.30;100.00;101092.33;1749225;80;21196;-81
2023/01/02 06:46:54;;;;;;;46.58;28.42;;;;;;;7.47;99.84;101090.81;1759541;81;21191;-78
2023/01/02 06:50:01;;;;;;;41.63;27.05;;;;;;;7.72;99.29;101089.98;1757402;80;21264;-79
2023/01/02 06:53:12;;;;;;;39.80;27.95;;;;;;;7.89;98.44;101086.56;1801885;78;21799;-78
2023/01/02 06:56:19;;;;;;;41.40;26.82;;;;;;;7.76;98.62;101088.17;1793108;78;21186;-79
2023/01/02 06:59:24;;;;;;;42.70;26.20;;;;;;;7.84;99.23;101091.08;1803752;79;21245;-79
2023/01/02 07:02:30;;;;;;;40.58;26.57;;;;;;;7.92;99.09;101092.61;1738231;81;21236;-79
2023/01/02 07:05:37;;;;;;;43.30;28.65;;;;;;;8.04;99.21;101102.01;1766209;80;21201;-77
2023/01/02 07:08:43;;;;;;;45.75;28.05;;;;;;;8.14;98.86;101104.27;1780324;79;21237;-80
2023/01/02 07:11:48;;;;;;;47.70;27.35;;;;;;;8.23;98.39;101106.62;1745083;81;21204;-80
2023/01/02 07:14:53;;;;;;;46.03;25.50;;;;;;;8.33;97.84;101108.37;1747752;82;21114;-79
2023/01/02 07:18:00;;;;;;;40.63;26.10;;;;;;;8.30;97.58;101110.02;1763727;80;21163;-79
2023/01/02 07:21:05;;;;;;;36.55;25.05;;;;;;;8.30;98.32;101111.87;1763392;80;21206;-79
2023/01/02 07:24:11;;;;;;;41.25;24.82;;;;;;;8.45;97.71;101115.43;1767174;81;21176;-79
2023/01/02 07:27:19;;;;;;;40.35;24.90;;;;;;;8.73;97.08;101114.20;1803519;78;21246;-79
2023/01/02 07:30:29;;;;;;;47.62;24.07;;;;;;;8.78;96.76;101116.50;1805813;78;21662;-80
2023/01/02 07:33:35;;;;;;;37.50;24.12;;;;;;;8.74;97.06;101117.28;1805014;77;21269;-80
2023/01/02 07:36:43;;;;;;;38.02;24.35;;;;;;;8.96;96.27;101125.16;1754473;80;21857;-79
2023/01/02 07:39:49;;;;;;;41.02;22.85;;;;;;;8.98;96.20;101115.96;1736958;81;21212;-79
2023/01/02 07:42:55;;;;;;;36.10;22.37;;;;;;;8.96;96.64;101126.53;1755861;80;21185;-78
2023/01/02 07:46:01;;;;;;;34.35;23.07;;;;;;;9.08;96.42;101117.69;1787815;79;21170;-78
2023/01/02 07:49:07;;;;;;;39.03;23.70;;;;;;;9.20;96.04;101117.00;1783389;79;21756;-79
2023/01/02 07:52:17;;;;;;;38.60;21.65;;;;;;;9.33;95.59;101117.53;1802453;77;21181;-79
2023/01/02 07:55:21;;;;;;;;;;;;;;;9.26;95.56;101113.66;1801472;79;21181;-79
2023/01/02 07:58:27;;;;;;;34.45;21.27;;;;;;;9.15;95.79;101122.04;1806724;79;20620;-79
2023/01/02 08:01:33;;;;;;;33.20;20.60;;;;;;;9.57;94.69;101124.35;1788776;79;21249;-79
2023/01/02 08:04:40;;;;;;;33.60;21.05;;;;;;;9.50;93.91;101128.67;1798213;78;21229;-79
2023/01/02 08:07:46;;;;;;;33.70;22.50;;;;;;;9.52;94.04;101126.67;1774910;78;21206;-79
2023/01/02 08:10:53;;;;;;;31.80;22.05;;;;;;;9.48;94.51;101128.83;1786839;78;21204;-79
2023/01/02 08:13:58;;;;;;;34.23;21.33;;;;;;;9.55;94.82;101127.24;1787510;79;22227;-78
2023/01/02 08:17:04;;;;;;;32.00;21.55;;;;;;;9.63;94.24;101128.69;1761379;79;21839;-79
2023/01/02 08:20:15;;;;;;;32.08;21.70;;;;;;;9.72;94.39;101128.30;1737188;80;21402;-79
2023/01/02 08:23:21;;;;;;;34.15;21.95;;;;;;;9.81;93.82;101130.12;1746697;81;21173;-79
2023/01/02 08:26:27;;;;;;;33.33;21.12;;;;;;;10.13;92.54;101124.20;1756938;81;21207;-79
2023/01/02 08:29:32;;;;;;;39.60;21.90;;;;;;;10.27;91.58;101125.58;1758258;81;21204;-79
2023/01/02 08:32:44;;;;;;;33.28;19.73;;;;;;;10.38;90.93;101122.61;1745142;81;21202;-79
2023/01/02 08:35:48;;;;;;;;;;;;;;;10.41;90.71;101126.92;1792868;80;21200;-78
2023/01/02 08:38:54;;;;;;;27.45;18.52;;;;;;;10.39;90.68;101124.83;1792016;78;20605;-79
2023/01/02 08:42:00;;;;;;;27.45;18.25;;;;;;;10.43;90.72;101123.51;1718303;82;21225;-79
2023/01/02 08:45:05;;;;;;;26.37;18.48;;;;;;;10.54;90.14;101116.45;1742953;80;21233;-79
2023/01/02 08:48:11;;;;;;;28.73;18.95;;;;;;;10.54;89.81;101108.25;1740454;80;21246;-79
2023/01/02 08:51:18;;;;;;;26.75;18.07;;;;;;;10.45;90.15;101112.78;1737565;80;21265;-79
2023/01/02 08:54:24;;;;;;;33.67;18.57;;;;;;;10.69;89.36;101107.19;1749233;82;21192;-79
2023/01/02 08:57:31;;;;;;;25.95;17.32;;;;;;;10.48;89.73;101102.02;1741439;82;22437;-77
2023/01/02 09:00:38;;;;;;;31.48;19.75;;;;;;;10.55;89.83;101097.66;1741012;82;21207;-77
2023/01/02 09:03:43;;;;;;;27.77;18.45;;;;;;;10.57;89.94;101092.02;1733600;82;21176;-78
2023/01/02 09:06:52;;;;;;;26.15;17.45;;;;;;;10.96;88.74;101083.80;1758343;80;21217;-78
2023/01/02 09:10:00;;;;;;;30.23;17.73;;;;;;;11.10;87.38;101089.69;1742399;81;21145;-78
2023/01/02 09:13:19;;;;;;;32.48;18.73;;;;;;;10.94;87.81;101091.81;1745291;80;21214;-79
2023/01/02 09:16:28;;;;;;;28.65;18.05;;;;;;;11.16;87.29;101091.80;1741472;81;21228;-79
2023/01/02 09:19:33;;;;;;;29.20;19.15;;;;;;;11.26;86.98;101090.66;1742511;80;21167;-79
2023/01/02 09:22:39;;;;;;;26.62;17.90;;;;;;;11.22;87.18;101087.04;1742157;81;21211;-79
2023/01/02 09:25:43;;;;;;;25.15;16.67;;;;;;;11.28;86.70;101090.48;1733456;82;21213;-78
2023/01/02 09:28:50;;;;;;;26.17;15.90;;;;;;;11.16;87.08;101087.19;1746917;80;21776;-79
2023/01/02 09:31:56;;;;;;;27.05;17.20;;;;;;;11.21;86.77;101101.76;1750853;80;21225;-79
2023/01/02 09:35:02;;;;;;;26.75;15.80;;;;;;;11.10;86.99;101097.90;1757982;79;21214;-78
2023/01/02 09:38:07;;;;;;;27.80;16.48;;;;;;;11.17;87.18;101104.47;1783713;79;21159;-79
2023/01/02 09:41:36;;;;;;;28.30;16.02;;;;;;;11.15;87.29;101095.53;1792108;79;21236;-79
2023/01/02 09:44:55;;;;;;;23.67;15.43;;;;;;;11.27;87.08;101102.47;1803385;78;21181;-78
2023/01/02 09:48:02;;;;;;;26.40;14.78;;;;;;;11.39;86.33;101101.70;1800242;79;21171;-79
2023/01/02 09:51:07;;;;;;;26.65;15.70;;;;;;;11.40;86.21;101104.27;1796643;78;21917;-79
2023/01/02 09:54:16;;;;;;;22.67;14.90;;;;;;;11.48;85.72;101093.37;1798715;79;21810;-79
2023/01/02 09:57:37;;;;;;;25.97;14.68;;;;;;;11.54;85.61;101087.73;1802799;79;21145;-78
2023/01/02 10:00:43;;;;;;;31.33;15.20;;;;;;;11.60;85.41;101088.95;1804967;79;21784;-78
2023/01/02 10:03:54;;;;;;;30.27;16.23;;;;;;;11.56;85.32;101092.53;1802946;79;21523;-78
2023/01/02 10:07:42;;;;;;;23.73;15.75;;;;;;;11.50;85.72;101078.98;1784969;79;21149;-79
2023/01/02 10:10:50;;;;;;;22.93;14.15;;;;;;;11.54;85.44;101084.14;1787638;79;21173;-80
2023/01/02 10:14:07;;;;;;;20.15;14.03;;;;;;;11.54;85.50;101081.41;1796603;79;21176;-78
2023/01/02 10:17:17;;;;;;;24.00;15.90;;;;;;;11.62;85.25;101075.94;1797875;79;21851;-77
2023/01/02 10:20:38;;;;;;;21.80;15.13;;;;;;;11.54;85.67;101083.63;1796995;79;21147;-78
2023/01/02 10:23:48;;;;;;;24.25;15.40;;;;;;;11.35;86.76;101081.13;1808011;77;21170;-79
2023/01/02 10:26:58;;;;;;;23.45;15.85;;;;;;;11.65;85.88;101083.33;1795197;79;21451;-78
2023/01/02 10:30:31;;;;;;;21.30;13.32;;;;;;;11.77;85.40;101082.53;1800923;79;21314;-78
2023/01/02 10:33:52;;;;;;;24.90;15.68;;;;;;;11.79;85.34;101085.95;1779807;79;21215;-79
2023/01/02 10:36:59;;;;;;;22.40;16.23;;;;;;;11.79;85.56;101077.73;1800091;79;21167;-77
2023/01/02 10:40:06;;;;;;;28.87;15.72;;;;;;;11.85;85.41;101081.72;1792196;77;21186;-78
2023/01/02 10:43:12;;;;;;;24.35;15.58;;;;;;;11.72;86.13;101078.92;1795460;79;21196;-79
2023/01/02 10:46:18;;;;;;;25.60;14.25;;;;;;;11.76;86.06;101079.42;1798048;78;21521;-78
2023/01/02 10:49:24;;;;;;;21.50;12.88;;;;;;;11.88;85.83;101079.52;1798790;79;21712;-79
2023/01/02 10:52:37;;;;;;;19.50;13.70;;;;;;;12.01;85.68;101073.05;1799949;79;21213;-79
2023/01/02 10:55:48;;;;;;;24.40;15.18;;;;;;;12.10;85.13;101082.16;1803903;79;21162;-79
2023/01/02 10:58:57;;;;;;;20.75;13.88;;;;;;;12.40;84.23;101076.55;1798143;78;21207;-79
2023/01/02 11:02:04;;;;;;;18.92;12.65;;;;;;;12.44;83.73;101085.30;1793296;79;21160;-79
2023/01/02 11:05:10;;;;;;;20.43;13.30;;;;;;;12.50;83.76;101080.50;1790725;79;21165;-79
2023/01/02 11:08:22;;;;;;;22.95;14.78;;;;;;;12.14;84.23;101075.80;1796871;79;21768;-79
2023/01/02 11:11:27;;;;;;;20.15;13.15;;;;;;;11.97;85.50;101070.29;1794445;79;21732;-79
2023/01/02 11:14:39;;;;;;;19.40;13.15;;;;;;;12.31;83.97;101076.19;1725711;81;21168;-79
2023/01/02 11:17:48;;;;;;;21.30;13.25;;;;;;;12.55;83.81;101073.98;1764635;81;21169;-79
2023/01/02 11:21:02;;;;;;;22.25;14.20;;;;;;;12.34;84.28;101071.75;1771022;81;21173;-78
2023/01/02 11:24:18;;;;;;;24.40;14.10;;;;;;;12.15;85.18;101072.06;1778067;79;21227;-78
2023/01/02 11:27:23;;;;;;;19.75;13.43;;;;;;;12.48;84.15;101079.82;1769477;81;21852;-78
2023/01/02 11:31:00;;;;;;;20.43;12.47;;;;;;;12.30;85.18;101078.59;1786288;79;21153;-77
2023/01/02 11:34:18;;;;;;;22.02;12.45;;;;;;;12.28;85.12;101084.26;1774164;80;21205;-80
2023/01/02 11:37:25;;;;;;;17.37;11.55;;;;;;;12.29;84.73;101083.74;1763953;81;21241;-80
2023/01/02 11:40:37;;;;;;;17.67;12.58;;;;;;;12.66;83.10;101083.27;1767297;79;21191;-77
2023/01/02 11:43:52;;;;;;;20.75;12.68;;;;;;;12.72;82.92;101084.46;1753622;79;21218;-79
2023/01/02 11:46:58;;;;;;;15.63;10.23;;;;;;;12.76;82.68;101083.09;1761938;81;21158;-80
2023/01/02 11:50:03;;;;;;;19.62;12.43;;;;;;;12.74;81.93;101083.77;1707016;83;21185;-80
2023/01/02 11:53:23;;;;;;;18.00;12.20;;;;;;;12.69;81.81;101084.28;1734050;82;21253;-80
2023/01/02 11:56:36;;;;;;;18.35;11.97;;;;;;;12.56;82.81;101083.06;1736348;82;21233;-80
2023/01/02 11:59:49;;;;;;;19.45;13.15;;;;;;;12.77;81.94;101089.78;1749121;82;21208;-80
2023/01/02 12:02:58;;;;;;;22.13;13.03;;;;;;;12.72;81.83;101092.18;1741378;82;21858;-79
2023/01/02 12:06:29;;;;;;;21.48;12.25;;;;;;;12.49;82.68;101089.77;1743485;81;21193;-78
2023/01/02 12:09:55;;;;;;;20.27;12.98;;;;;;;12.44;83.04;101094.39;1745493;81;21260;-79
2023/01/02 12:13:36;;;;;;;18.48;13.45;;;;;;;12.68;82.40;101092.69;1761411;81;21206;-79
2023/01/02 12:16:48;;;;;;;22.32;12.20;;;;;;;12.78;81.43;101092.86;1756537;81;21175;-78
2023/01/02 12:20:23;;;;;;;28.23;13.38;;;;;;;12.70;81.42;101097.48;1758038;81;21241;-79
2023/01/02 12:23:55;;;;;;;22.55;12.28;;;;;;;12.70;81.69;101094.73;1757526;81;21355;-79
2023/01/02 12:27:24;;;;;;;19.17;12.70;;;;;;;12.72;81.55;101100.41;1766783;81;21159;-79
2023/01/02 12:30:30;;;;;;;18.60;12.50;;;;;;;12.68;81.31;101101.78;1736652;82;21234;-78
2023/01/02 12:34:14;;;;;;;17.70;12.20;;;;;;;12.65;81.41;101102.63;1736529;82;21210;-78
2023/01/02 12:37:54;;;;;;;21.15;12.70;;;;;;;12.54;81.65;101106.05;1736056;82;21203;-78
2023/01/02 12:41:23;;;;;;;18.17;11.65;;;;;;;12.41;82.44;101119.41;1727583;82;21243;-79
2023/01/02 12:44:54;;;;;;;17.23;11.93;;;;;;;12.61;82.04;101130.06;1774056;79;21205;-79
2023/01/02 12:48:17;;;;;;;20.35;12.98;;;;;;;12.51;82.41;101124.25;1743190;80;21176;-79
2023/01/02 12:51:47;;;;;;;30.15;18.15;;;;;;;12.38;83.37;101128.52;1730101;82;21208;-79
2023/01/02 12:55:33;;;;;;;37.20;21.85;;;;;;;12.44;83.57;101127.31;1748188;81;21215;-79
2023/01/02 12:58:58;;;;;;;25.85;16.25;;;;;;;12.44;83.71;101126.45;1718315;82;21806;-79
2023/01/02 13:02:14;;;;;;;25.75;15.08;;;;;;;12.54;83.55;101129.38;1670169;83;21227;-79
2023/01/02 13:05:29;;;;;;;21.93;15.35;;;;;;;12.43;83.76;101130.23;1736132;80;21151;-80
2023/01/02 13:08:52;;;;;;;22.52;15.08;;;;;;;12.50;83.85;101134.86;1766666;81;21214;-79
2023/01/02 13:12:09;;;;;;;26.40;15.55;;;;;;;12.60;83.38;101137.45;1782619;80;21200;-79
2023/01/02 13:15:28;;;;;;;27.13;16.12;;;;;;;12.63;83.18;101134.38;1750370;81;21295;-79
2023/01/02 13:19:06;;;;;;;28.70;16.97;;;;;;;12.43;83.18;101135.20;1757955;80;21170;-79
2023/01/02 13:22:22;;;;;;;22.75;15.15;;;;;;;12.72;82.29;101137.98;1756790;81;21736;-79
2023/01/02 13:25:29;;;;;;;23.87;15.35;;;;;;;12.16;83.90;101136.33;1738594;81;21224;-79
2023/01/02 13:28:36;;;;;;;26.05;16.70;;;;;;;11.83;85.39;101132.60;1765851;81;21755;-79
2023/01/02 13:31:47;;;;;;;25.97;16.35;;;;;;;11.85;85.62;101137.39;1754841;79;21199;-80
2023/01/02 13:34:58;;;;;;;23.98;16.50;;;;;;;11.83;85.62;101136.72;1727251;82;21227;-80
2023/01/02 13:38:05;;;;;;;27.52;17.90;;;;;;;11.86;85.32;101137.77;1720897;83;21206;-80
2023/01/02 13:41:09;;;;;;;24.27;16.87;;;;;;;11.73;85.34;101146.41;1740480;82;21254;-79
2023/01/02 13:44:15;;;;;;;26.73;17.17;;;;;;;11.56;85.89;101143.73;1750946;82;21195;-79
2023/01/02 13:47:45;;;;;;;32.88;17.25;;;;;;;11.42;86.23;101145.19;1793729;79;21183;-79
2023/01/02 13:50:49;;;;;;;22.80;15.80;;;;;;;11.45;86.08;101145.73;1803554;79;21168;-79
2023/01/02 13:54:00;;;;;;;22.42;15.32;;;;;;;11.26;86.47;101151.42;1792659;79;21532;-79
2023/01/02 13:57:36;;;;;;;28.80;17.37;;;;;;;11.27;86.86;101144.92;1753432;81;21258;-79
2023/01/02 14:00:45;;;;;;;31.45;19.45;;;;;;;11.17;86.85;101148.28;1740750;82;21875;-80
2023/01/02 14:03:52;;;;;;;31.15;20.15;;;;;;;11.00;87.34;101148.65;1748815;81;21251;-79
2023/01/02 14:06:59;;;;;;;34.48;20.08;;;;;;;11.00;87.46;101160.97;1799526;79;21191;-79
2023/01/02 14:10:35;;;;;;;32.13;19.27;;;;;;;10.87;87.31;101153.19;1775240;80;21208;-80
2023/01/02 14:13:55;;;;;;;37.28;18.95;;;;;;;10.74;87.56;101149.47;1809970;78;21247;-78
2023/01/02 14:17:31;;;;;;;51.18;26.80;;;;;;;10.62;87.37;101151.22;1808400;78;21195;-79
2023/01/02 14:20:40;;;;;;;52.75;24.80;;;;;;;10.64;86.81;101147.33;1809175;78;21176;-78
2023/01/02 14:23:48;;;;;;;63.43;27.20;;;;;;;10.48;87.01;101148.00;1810958;78;21746;-78
2023/01/02 14:27:00;;;;;;;80.17;34.92;;;;;;;10.54;86.55;101149.28;1807946;79;21207;-78
2023/01/02 14:30:13;;;;;;;77.60;34.00;;;;;;;10.55;86.39;101152.88;1811033;78;21169;-78
2023/01/02 14:33:24;;;;;;;126.22;38.20;;;;;;;10.40;86.77;101154.78;1811287;78;21203;-78
2023/01/02 14:36:29;;;;;;;117.55;38.05;;;;;;;10.27;87.44;101152.92;1810244;78;21785;-79